EXS65B EGGP-LERS
Flight info
| Callsign | EXS65B |
|---|---|
| Flight time | 2h 7m |
| Altitude | 39000 |
| Route | NANTI L8 STAFA P18 TELBA L151 KIDLI UN859 SOPIL DCT BALAN DCT EVPOK DCT NARAK DCT GAI DCT LOMRA DCT ROCAN DCT PUMAL N31 BERGA |
| Aircraft | B738/M-SDE2E3FGHIRWXY/LB1 |
Departure
| Time | 2026-05-06 12:39 |
|---|---|
| Airport | Liverpool John Lennon Airport (EGGP) |
Arrival
| Time | 2026-05-06 14:46 |
|---|---|
| Airport | Reus Airport (LERS) |
| Time | Latitude | Longitude | Altitude | Speed | Heading |
|---|---|---|---|---|---|
| 2026-05-06 12:17 | 53.33545 | -2.86087 | 84 ft | 0 kts | 175° |
| 2026-05-06 12:32 | 53.33547 | -2.86087 | 84 ft | 2 kts | 175° |
| 2026-05-06 12:32 | 53.33568 | -2.86090 | 89 ft | 2 kts | 175° |
| 2026-05-06 12:32 | 53.33587 | -2.86085 | 86 ft | 4 kts | 240° |
| 2026-05-06 12:33 | 53.33593 | -2.86046 | 88 ft | 4 kts | 266° |
| 2026-05-06 12:33 | 53.33594 | -2.86018 | 87 ft | 0 kts | 266° |
| 2026-05-06 12:35 | 53.33594 | -2.86019 | 87 ft | 0 kts | 266° |
| 2026-05-06 12:35 | 53.33593 | -2.86036 | 86 ft | 3 kts | 265° |
| 2026-05-06 12:36 | 53.33591 | -2.86103 | 87 ft | 12 kts | 266° |
| 2026-05-06 12:36 | 53.33576 | -2.86252 | 86 ft | 12 kts | 242° |
| 2026-05-06 12:36 | 53.33512 | -2.86315 | 84 ft | 8 kts | 169° |
| 2026-05-06 12:36 | 53.33469 | -2.86336 | 88 ft | 7 kts | 246° |
| 2026-05-06 12:37 | 53.33462 | -2.86439 | 83 ft | 12 kts | 266° |
| 2026-05-06 12:37 | 53.33453 | -2.86628 | 68 ft | 17 kts | 260° |
| 2026-05-06 12:37 | 53.33383 | -2.86734 | 71 ft | 12 kts | 192° |
| 2026-05-06 12:37 | 53.33319 | -2.86691 | 76 ft | 10 kts | 139° |
| 2026-05-06 12:38 | 53.33288 | -2.86596 | 70 ft | 10 kts | 86° |
| 2026-05-06 12:38 | 53.33296 | -2.86421 | 67 ft | 35 kts | 85° |
| 2026-05-06 12:38 | 53.33334 | -2.85605 | 81 ft | 105 kts | 86° |
| 2026-05-06 12:38 | 53.33408 | -2.84053 | 160 ft | 154 kts | 85° |
| 2026-05-06 12:39 | 53.33522 | -2.82276 | 926 ft | 149 kts | 84° |
| 2026-05-06 12:39 | 53.33616 | -2.80543 | 1744 ft | 155 kts | 87° |
| 2026-05-06 12:39 | 53.33318 | -2.78813 | 2429 ft | 165 kts | 127° |
| 2026-05-06 12:39 | 53.32340 | -2.77535 | 2836 ft | 195 kts | 144° |
| 2026-05-06 12:40 | 53.31147 | -2.76243 | 3322 ft | 209 kts | 145° |
| 2026-05-06 12:40 | 53.29904 | -2.74908 | 3955 ft | 216 kts | 145° |
| 2026-05-06 12:40 | 53.28574 | -2.73469 | 4293 ft | 243 kts | 145° |
| 2026-05-06 12:40 | 53.27091 | -2.71846 | 4801 ft | 262 kts | 144° |
| 2026-05-06 12:41 | 53.25542 | -2.70141 | 5585 ft | 270 kts | 144° |
| 2026-05-06 12:41 | 53.23955 | -2.68385 | 6427 ft | 276 kts | 145° |
| 2026-05-06 12:41 | 53.22341 | -2.66591 | 7223 ft | 281 kts | 145° |
| 2026-05-06 12:41 | 53.20662 | -2.64868 | 8017 ft | 287 kts | 157° |
| 2026-05-06 12:42 | 53.18709 | -2.64250 | 8840 ft | 289 kts | 184° |
| 2026-05-06 12:42 | 53.16732 | -2.64844 | 9723 ft | 290 kts | 194° |
| 2026-05-06 12:42 | 53.14746 | -2.65599 | 10422 ft | 299 kts | 194° |
| 2026-05-06 12:42 | 53.12638 | -2.66412 | 10640 ft | 324 kts | 194° |
| 2026-05-06 12:43 | 53.10393 | -2.67285 | 11129 ft | 336 kts | 194° |
| 2026-05-06 12:43 | 53.08099 | -2.68178 | 11897 ft | 340 kts | 194° |
| 2026-05-06 12:43 | 53.05741 | -2.68635 | 12719 ft | 346 kts | 178° |
| 2026-05-06 12:43 | 53.03368 | -2.67837 | 13576 ft | 352 kts | 161° |
| 2026-05-06 12:44 | 53.01161 | -2.66011 | 14345 ft | 357 kts | 151° |
| 2026-05-06 12:44 | 52.99013 | -2.63884 | 15106 ft | 362 kts | 149° |
| 2026-05-06 12:44 | 52.96851 | -2.61689 | 15870 ft | 366 kts | 149° |
| 2026-05-06 12:44 | 52.94665 | -2.59474 | 16637 ft | 370 kts | 150° |
| 2026-05-06 12:45 | 52.92456 | -2.57256 | 17428 ft | 373 kts | 150° |
| 2026-05-06 12:45 | 52.90249 | -2.55061 | 18187 ft | 377 kts | 150° |
| 2026-05-06 12:45 | 52.85692 | -2.50576 | 19058 ft | 386 kts | 150° |
| 2026-05-06 12:46 | 52.83357 | -2.48294 | 19582 ft | 391 kts | 151° |
| 2026-05-06 12:46 | 52.81025 | -2.46018 | 20402 ft | 389 kts | 151° |
| 2026-05-06 12:46 | 52.78687 | -2.43740 | 21144 ft | 391 kts | 151° |
| 2026-05-06 12:46 | 52.76334 | -2.41450 | 21766 ft | 395 kts | 151° |
| 2026-05-06 12:47 | 52.73952 | -2.39136 | 22372 ft | 399 kts | 151° |
| 2026-05-06 12:47 | 52.71549 | -2.36803 | 23042 ft | 402 kts | 151° |
| 2026-05-06 12:47 | 52.69130 | -2.34457 | 23665 ft | 405 kts | 151° |
| 2026-05-06 12:47 | 52.66690 | -2.32092 | 24174 ft | 408 kts | 151° |
| 2026-05-06 12:48 | 52.64272 | -2.29608 | 24691 ft | 412 kts | 149° |
| 2026-05-06 12:48 | 52.61879 | -2.26988 | 25212 ft | 414 kts | 148° |
| 2026-05-06 12:48 | 52.59485 | -2.24319 | 25708 ft | 417 kts | 148° |
| 2026-05-06 12:48 | 52.57891 | -2.22542 | 26029 ft | 419 kts | 148° |
| 2026-05-06 12:49 | 52.55484 | -2.19876 | 26505 ft | 422 kts | 148° |
| 2026-05-06 12:49 | 52.53037 | -2.17187 | 26974 ft | 424 kts | 148° |
| 2026-05-06 12:49 | 52.50670 | -2.14602 | 27415 ft | 427 kts | 149° |
| 2026-05-06 12:49 | 52.48189 | -2.11903 | 27847 ft | 430 kts | 149° |
| 2026-05-06 12:50 | 52.45687 | -2.09185 | 28298 ft | 432 kts | 149° |
| 2026-05-06 12:50 | 52.43170 | -2.06455 | 28734 ft | 435 kts | 149° |
| 2026-05-06 12:50 | 52.40636 | -2.03709 | 29152 ft | 438 kts | 149° |
| 2026-05-06 12:50 | 52.38088 | -2.00949 | 29556 ft | 440 kts | 149° |
| 2026-05-06 12:51 | 52.35524 | -1.98178 | 29959 ft | 443 kts | 149° |
| 2026-05-06 12:51 | 52.32946 | -1.95397 | 30286 ft | 445 kts | 149° |
| 2026-05-06 12:51 | 52.30351 | -1.92601 | 30618 ft | 448 kts | 149° |
| 2026-05-06 12:51 | 52.27747 | -1.89800 | 30940 ft | 450 kts | 149° |
| 2026-05-06 12:52 | 52.25126 | -1.86985 | 31225 ft | 452 kts | 148° |
| 2026-05-06 12:52 | 52.22495 | -1.84162 | 31546 ft | 454 kts | 148° |
| 2026-05-06 12:52 | 52.19856 | -1.81335 | 31884 ft | 454 kts | 149° |
| 2026-05-06 12:52 | 52.17219 | -1.78514 | 32317 ft | 452 kts | 149° |
| 2026-05-06 12:53 | 52.14597 | -1.75712 | 32788 ft | 450 kts | 149° |
| 2026-05-06 12:53 | 52.11977 | -1.72917 | 33211 ft | 449 kts | 149° |
| 2026-05-06 12:53 | 52.09361 | -1.70130 | 33560 ft | 450 kts | 149° |
| 2026-05-06 12:53 | 52.06748 | -1.67350 | 33940 ft | 449 kts | 149° |
| 2026-05-06 12:54 | 52.04135 | -1.64567 | 34303 ft | 448 kts | 149° |
| 2026-05-06 12:54 | 52.01528 | -1.61791 | 34583 ft | 448 kts | 149° |
| 2026-05-06 12:54 | 51.98915 | -1.59024 | 34863 ft | 449 kts | 149° |
| 2026-05-06 12:54 | 51.96299 | -1.56263 | 35162 ft | 449 kts | 149° |
| 2026-05-06 12:55 | 51.93681 | -1.53504 | 35474 ft | 448 kts | 149° |
| 2026-05-06 12:55 | 51.91066 | -1.50751 | 35755 ft | 449 kts | 149° |
| 2026-05-06 12:55 | 51.88483 | -1.48034 | 36029 ft | 449 kts | 149° |
| 2026-05-06 12:55 | 51.85862 | -1.45280 | 36311 ft | 449 kts | 149° |
| 2026-05-06 12:56 | 51.83248 | -1.42534 | 36615 ft | 448 kts | 149° |
| 2026-05-06 12:56 | 51.80631 | -1.39789 | 36898 ft | 448 kts | 149° |
| 2026-05-06 12:56 | 51.78017 | -1.37057 | 37124 ft | 448 kts | 150° |
| 2026-05-06 12:56 | 51.75282 | -1.34656 | 37351 ft | 447 kts | 158° |
| 2026-05-06 12:57 | 51.72425 | -1.32697 | 37649 ft | 445 kts | 160° |
| 2026-05-06 12:57 | 51.69553 | -1.30822 | 37933 ft | 445 kts | 160° |
| 2026-05-06 12:57 | 51.66677 | -1.28966 | 38171 ft | 445 kts | 160° |
| 2026-05-06 12:57 | 51.63804 | -1.27102 | 38398 ft | 446 kts | 160° |
| 2026-05-06 12:58 | 51.60935 | -1.25220 | 38661 ft | 445 kts | 160° |
| 2026-05-06 12:58 | 51.58071 | -1.23326 | 38842 ft | 445 kts | 160° |
| 2026-05-06 12:58 | 51.55207 | -1.21422 | 38972 ft | 446 kts | 159° |
| 2026-05-06 12:59 | 51.49436 | -1.17578 | 38990 ft | 450 kts | 159° |
| 2026-05-06 12:59 | 51.43680 | -1.13747 | 38987 ft | 446 kts | 159° |
| 2026-05-06 13:00 | 51.32403 | -1.06279 | 38982 ft | 441 kts | 159° |
| 2026-05-06 13:01 | 51.26744 | -1.02549 | 38995 ft | 439 kts | 159° |
| 2026-05-06 13:01 | 51.21090 | -0.98832 | 38996 ft | 440 kts | 159° |
| 2026-05-06 13:02 | 51.15424 | -0.95117 | 39001 ft | 441 kts | 159° |
| 2026-05-06 13:02 | 51.09733 | -0.91396 | 38988 ft | 443 kts | 159° |
| 2026-05-06 13:03 | 51.04018 | -0.87668 | 38986 ft | 445 kts | 159° |
| 2026-05-06 13:03 | 50.98266 | -0.83926 | 38983 ft | 447 kts | 159° |
| 2026-05-06 13:04 | 50.92496 | -0.80183 | 38971 ft | 449 kts | 160° |
| 2026-05-06 13:04 | 50.86699 | -0.76427 | 38968 ft | 451 kts | 159° |
| 2026-05-06 13:05 | 50.81268 | -0.71562 | 38975 ft | 453 kts | 148° |
| 2026-05-06 13:05 | 50.75962 | -0.66040 | 38969 ft | 454 kts | 148° |
| 2026-05-06 13:06 | 50.70717 | -0.60625 | 38967 ft | 453 kts | 148° |
| 2026-05-06 13:06 | 50.65420 | -0.55237 | 38967 ft | 452 kts | 149° |
| 2026-05-06 13:07 | 50.60128 | -0.49895 | 38969 ft | 451 kts | 149° |
| 2026-05-06 13:07 | 50.54844 | -0.44579 | 38971 ft | 450 kts | 149° |
| 2026-05-06 13:08 | 50.49574 | -0.39288 | 38971 ft | 449 kts | 149° |
| 2026-05-06 13:08 | 50.44314 | -0.34020 | 38969 ft | 448 kts | 149° |
| 2026-05-06 13:09 | 50.39062 | -0.28774 | 38970 ft | 447 kts | 149° |
| 2026-05-06 13:09 | 50.33815 | -0.23548 | 38972 ft | 447 kts | 149° |
| 2026-05-06 13:10 | 50.28573 | -0.18340 | 38975 ft | 446 kts | 149° |
| 2026-05-06 13:10 | 50.23368 | -0.13182 | 38975 ft | 446 kts | 149° |
| 2026-05-06 13:11 | 50.18122 | -0.07999 | 38970 ft | 446 kts | 149° |
| 2026-05-06 13:11 | 50.12872 | -0.02823 | 38978 ft | 446 kts | 149° |
| 2026-05-06 13:12 | 50.07303 | 0.01326 | 38970 ft | 443 kts | 166° |
| 2026-05-06 13:12 | 50.01350 | 0.03791 | 38974 ft | 443 kts | 167° |
| 2026-05-06 13:13 | 49.95373 | 0.06199 | 38972 ft | 444 kts | 167° |
| 2026-05-06 13:13 | 49.89397 | 0.08651 | 38976 ft | 445 kts | 166° |
| 2026-05-06 13:14 | 49.83416 | 0.11135 | 38976 ft | 445 kts | 166° |
| 2026-05-06 13:14 | 49.77429 | 0.13626 | 38981 ft | 446 kts | 166° |
| 2026-05-06 13:15 | 49.71435 | 0.16115 | 38983 ft | 446 kts | 166° |
| 2026-05-06 13:15 | 49.65440 | 0.18597 | 38992 ft | 446 kts | 166° |
| 2026-05-06 13:16 | 49.59478 | 0.21057 | 38996 ft | 446 kts | 166° |
| 2026-05-06 13:16 | 49.53478 | 0.23527 | 38993 ft | 447 kts | 166° |
| 2026-05-06 13:17 | 49.47474 | 0.25993 | 38986 ft | 446 kts | 166° |
| 2026-05-06 13:17 | 49.41477 | 0.28449 | 38968 ft | 446 kts | 166° |
| 2026-05-06 13:18 | 49.35478 | 0.30900 | 38967 ft | 446 kts | 166° |
| 2026-05-06 13:18 | 49.29482 | 0.33344 | 38962 ft | 446 kts | 166° |
| 2026-05-06 13:19 | 49.23490 | 0.35779 | 38960 ft | 446 kts | 166° |
| 2026-05-06 13:19 | 49.17496 | 0.38210 | 38957 ft | 446 kts | 167° |
| 2026-05-06 13:20 | 49.11498 | 0.40636 | 38953 ft | 446 kts | 166° |
| 2026-05-06 13:20 | 49.05500 | 0.43056 | 38947 ft | 446 kts | 166° |
| 2026-05-06 13:21 | 48.99504 | 0.45469 | 38947 ft | 446 kts | 167° |
| 2026-05-06 13:21 | 48.93549 | 0.47860 | 38952 ft | 445 kts | 167° |
| 2026-05-06 13:22 | 48.87559 | 0.50258 | 38951 ft | 445 kts | 167° |
| 2026-05-06 13:22 | 48.81564 | 0.52653 | 38950 ft | 445 kts | 166° |
| 2026-05-06 13:23 | 48.75570 | 0.55041 | 38948 ft | 445 kts | 166° |
| 2026-05-06 13:23 | 48.69576 | 0.57424 | 38950 ft | 445 kts | 167° |
| 2026-05-06 13:24 | 48.63576 | 0.59803 | 38947 ft | 446 kts | 166° |
| 2026-05-06 13:24 | 48.57578 | 0.62176 | 38951 ft | 446 kts | 167° |
| 2026-05-06 13:25 | 48.51576 | 0.64544 | 38949 ft | 446 kts | 167° |
| 2026-05-06 13:25 | 48.45574 | 0.66906 | 38952 ft | 446 kts | 167° |
| 2026-05-06 13:26 | 48.39566 | 0.69265 | 38946 ft | 446 kts | 166° |
| 2026-05-06 13:26 | 48.33559 | 0.71618 | 38950 ft | 446 kts | 167° |
| 2026-05-06 13:27 | 48.27548 | 0.73967 | 38949 ft | 446 kts | 167° |
| 2026-05-06 13:27 | 48.21535 | 0.76311 | 38940 ft | 447 kts | 167° |
| 2026-05-06 13:28 | 48.15557 | 0.78635 | 38940 ft | 447 kts | 167° |
| 2026-05-06 13:28 | 48.09535 | 0.80971 | 38944 ft | 447 kts | 167° |
| 2026-05-06 13:29 | 48.03514 | 0.83301 | 38948 ft | 447 kts | 167° |
| 2026-05-06 13:29 | 47.97493 | 0.85625 | 38937 ft | 447 kts | 167° |
| 2026-05-06 13:30 | 47.91474 | 0.87943 | 38958 ft | 448 kts | 167° |
| 2026-05-06 13:30 | 47.85423 | 0.90267 | 38924 ft | 449 kts | 167° |
| 2026-05-06 13:31 | 47.79386 | 0.92582 | 38930 ft | 447 kts | 167° |
| 2026-05-06 13:31 | 47.73363 | 0.94884 | 38930 ft | 446 kts | 167° |
| 2026-05-06 13:32 | 47.67358 | 0.97174 | 38941 ft | 445 kts | 167° |
| 2026-05-06 13:32 | 47.61365 | 0.99454 | 38933 ft | 444 kts | 167° |
| 2026-05-06 13:33 | 47.55386 | 1.01722 | 38932 ft | 444 kts | 167° |
| 2026-05-06 13:33 | 47.49395 | 1.03990 | 38936 ft | 444 kts | 167° |
| 2026-05-06 13:34 | 47.43394 | 1.06158 | 38919 ft | 443 kts | 172° |
| 2026-05-06 13:34 | 47.37274 | 1.06475 | 38931 ft | 440 kts | 183° |
| 2026-05-06 13:35 | 47.31155 | 1.06228 | 38929 ft | 440 kts | 182° |
| 2026-05-06 13:35 | 47.25072 | 1.06034 | 38937 ft | 441 kts | 182° |
| 2026-05-06 13:36 | 47.18930 | 1.05884 | 38926 ft | 442 kts | 182° |
| 2026-05-06 13:36 | 47.12771 | 1.05743 | 38925 ft | 443 kts | 182° |
| 2026-05-06 13:37 | 47.06596 | 1.05597 | 38917 ft | 445 kts | 182° |
| 2026-05-06 13:37 | 47.00411 | 1.05439 | 38919 ft | 444 kts | 183° |
| 2026-05-06 13:38 | 46.94233 | 1.05178 | 38915 ft | 444 kts | 183° |
| 2026-05-06 13:38 | 46.88059 | 1.04896 | 38922 ft | 444 kts | 183° |
| 2026-05-06 13:39 | 46.81886 | 1.04625 | 38926 ft | 445 kts | 183° |
| 2026-05-06 13:39 | 46.75701 | 1.04360 | 38901 ft | 445 kts | 183° |
| 2026-05-06 13:40 | 46.69522 | 1.04098 | 38909 ft | 443 kts | 183° |
| 2026-05-06 13:40 | 46.63360 | 1.03836 | 38910 ft | 442 kts | 183° |
| 2026-05-06 13:41 | 46.57212 | 1.03574 | 38918 ft | 442 kts | 183° |
| 2026-05-06 13:41 | 46.51058 | 1.03454 | 38913 ft | 444 kts | 176° |
| 2026-05-06 13:42 | 46.44952 | 1.04862 | 38909 ft | 444 kts | 171° |
| 2026-05-06 13:42 | 46.38872 | 1.06486 | 38914 ft | 444 kts | 171° |
| 2026-05-06 13:43 | 46.32799 | 1.08069 | 38905 ft | 443 kts | 172° |
| 2026-05-06 13:43 | 46.26732 | 1.09606 | 38909 ft | 442 kts | 172° |
| 2026-05-06 13:44 | 46.20665 | 1.11125 | 38911 ft | 443 kts | 172° |
| 2026-05-06 13:44 | 46.14590 | 1.12640 | 38914 ft | 443 kts | 172° |
| 2026-05-06 13:45 | 46.09539 | 1.13897 | 38900 ft | 443 kts | 172° |
| 2026-05-06 13:45 | 46.00421 | 1.16162 | 38912 ft | 443 kts | 172° |
| 2026-05-06 13:46 | 45.94340 | 1.17668 | 38907 ft | 443 kts | 172° |
| 2026-05-06 13:46 | 45.88261 | 1.19172 | 38912 ft | 443 kts | 172° |
| 2026-05-06 13:47 | 45.82186 | 1.20670 | 38912 ft | 443 kts | 172° |
| 2026-05-06 13:47 | 45.76108 | 1.22166 | 38905 ft | 443 kts | 172° |
| 2026-05-06 13:48 | 45.70039 | 1.23657 | 38908 ft | 442 kts | 172° |
| 2026-05-06 13:48 | 45.64014 | 1.25133 | 38911 ft | 442 kts | 172° |
| 2026-05-06 13:49 | 45.57951 | 1.26616 | 38908 ft | 442 kts | 172° |
| 2026-05-06 13:49 | 45.51889 | 1.28095 | 38902 ft | 442 kts | 173° |
| 2026-05-06 13:50 | 45.45836 | 1.29569 | 38911 ft | 441 kts | 173° |
| 2026-05-06 13:50 | 45.39783 | 1.31039 | 38901 ft | 441 kts | 173° |
| 2026-05-06 13:51 | 45.33730 | 1.32506 | 38908 ft | 441 kts | 173° |
| 2026-05-06 13:51 | 45.27680 | 1.33969 | 38911 ft | 441 kts | 173° |
| 2026-05-06 13:52 | 45.21622 | 1.35431 | 38905 ft | 441 kts | 173° |
| 2026-05-06 13:52 | 45.15564 | 1.36890 | 38905 ft | 442 kts | 173° |
| 2026-05-06 13:53 | 45.09499 | 1.38347 | 38913 ft | 442 kts | 173° |
| 2026-05-06 13:53 | 45.03434 | 1.39802 | 38910 ft | 442 kts | 173° |
| 2026-05-06 13:54 | 44.97367 | 1.41254 | 38901 ft | 442 kts | 173° |
| 2026-05-06 13:54 | 44.91296 | 1.42704 | 38911 ft | 442 kts | 173° |
| 2026-05-06 13:55 | 44.85267 | 1.44140 | 38913 ft | 442 kts | 173° |
| 2026-05-06 13:55 | 44.79194 | 1.45583 | 38913 ft | 443 kts | 173° |
| 2026-05-06 13:56 | 44.73115 | 1.47025 | 38914 ft | 443 kts | 173° |
| 2026-05-06 13:56 | 44.67037 | 1.48464 | 38911 ft | 443 kts | 173° |
| 2026-05-06 13:57 | 44.60957 | 1.49901 | 38915 ft | 443 kts | 173° |
| 2026-05-06 13:57 | 44.54879 | 1.51333 | 38918 ft | 443 kts | 173° |
| 2026-05-06 13:58 | 44.48802 | 1.52763 | 38923 ft | 443 kts | 173° |
| 2026-05-06 13:58 | 44.42725 | 1.54190 | 38927 ft | 442 kts | 173° |
| 2026-05-06 13:59 | 44.36654 | 1.55612 | 38928 ft | 443 kts | 174° |
| 2026-05-06 13:59 | 44.30574 | 1.57032 | 38931 ft | 444 kts | 174° |
| 2026-05-06 14:00 | 44.24474 | 1.58455 | 38927 ft | 444 kts | 174° |
| 2026-05-06 14:00 | 44.18395 | 1.59871 | 38917 ft | 441 kts | 174° |
| 2026-05-06 14:01 | 44.12360 | 1.61274 | 38927 ft | 438 kts | 174° |
| 2026-05-06 14:01 | 44.06371 | 1.62663 | 38928 ft | 435 kts | 174° |
| 2026-05-06 14:02 | 44.00446 | 1.64033 | 38919 ft | 433 kts | 174° |
| 2026-05-06 14:02 | 43.94499 | 1.65405 | 38931 ft | 433 kts | 174° |
| 2026-05-06 14:03 | 43.88560 | 1.66772 | 38949 ft | 433 kts | 174° |
| 2026-05-06 14:03 | 43.82593 | 1.68143 | 38937 ft | 435 kts | 174° |
| 2026-05-06 14:04 | 43.76618 | 1.69514 | 38948 ft | 436 kts | 174° |
| 2026-05-06 14:04 | 43.70632 | 1.70886 | 38957 ft | 436 kts | 174° |
| 2026-05-06 14:05 | 43.64641 | 1.72255 | 38962 ft | 437 kts | 174° |
| 2026-05-06 14:05 | 43.58639 | 1.73623 | 38948 ft | 437 kts | 174° |
| 2026-05-06 14:06 | 43.52641 | 1.74989 | 38951 ft | 437 kts | 174° |
| 2026-05-06 14:06 | 43.46636 | 1.76353 | 38944 ft | 437 kts | 174° |
| 2026-05-06 14:07 | 43.40623 | 1.77716 | 38940 ft | 438 kts | 175° |
| 2026-05-06 14:07 | 43.34614 | 1.79076 | 38942 ft | 437 kts | 175° |
| 2026-05-06 14:08 | 43.28614 | 1.80431 | 38946 ft | 437 kts | 175° |
| 2026-05-06 14:08 | 43.25615 | 1.81107 | 38829 ft | 438 kts | 175° |
| 2026-05-06 14:08 | 43.22596 | 1.81785 | 38324 ft | 441 kts | 175° |
| 2026-05-06 14:09 | 43.19578 | 1.82465 | 37755 ft | 438 kts | 175° |
| 2026-05-06 14:09 | 43.16581 | 1.83141 | 37224 ft | 436 kts | 175° |
| 2026-05-06 14:09 | 43.13594 | 1.83813 | 36645 ft | 434 kts | 176° |
| 2026-05-06 14:09 | 43.10617 | 1.84481 | 36092 ft | 433 kts | 176° |
| 2026-05-06 14:10 | 43.07645 | 1.85147 | 35506 ft | 433 kts | 176° |
| 2026-05-06 14:10 | 43.04671 | 1.85812 | 34891 ft | 433 kts | 176° |
| 2026-05-06 14:10 | 43.01699 | 1.86476 | 34261 ft | 434 kts | 176° |
| 2026-05-06 14:10 | 42.98754 | 1.87134 | 33534 ft | 435 kts | 177° |
| 2026-05-06 14:11 | 42.95779 | 1.87799 | 33034 ft | 430 kts | 177° |
| 2026-05-06 14:11 | 42.92847 | 1.88457 | 32527 ft | 425 kts | 177° |
| 2026-05-06 14:11 | 42.89952 | 1.89105 | 32075 ft | 419 kts | 177° |
| 2026-05-06 14:11 | 42.87093 | 1.89744 | 31618 ft | 414 kts | 177° |
| 2026-05-06 14:12 | 42.84268 | 1.90373 | 31166 ft | 409 kts | 178° |
| 2026-05-06 14:12 | 42.81474 | 1.90994 | 30707 ft | 404 kts | 178° |
| 2026-05-06 14:12 | 42.78715 | 1.91606 | 30303 ft | 399 kts | 178° |
| 2026-05-06 14:12 | 42.75989 | 1.92210 | 29828 ft | 395 kts | 178° |
| 2026-05-06 14:13 | 42.73299 | 1.92806 | 29390 ft | 389 kts | 178° |
| 2026-05-06 14:13 | 42.70644 | 1.93393 | 28929 ft | 384 kts | 178° |
| 2026-05-06 14:13 | 42.68021 | 1.93972 | 28495 ft | 380 kts | 178° |
| 2026-05-06 14:13 | 42.65425 | 1.94544 | 28062 ft | 376 kts | 177° |
| 2026-05-06 14:14 | 42.62851 | 1.95109 | 27611 ft | 373 kts | 177° |
| 2026-05-06 14:14 | 42.60304 | 1.95670 | 27217 ft | 370 kts | 177° |
| 2026-05-06 14:14 | 42.57761 | 1.96229 | 26744 ft | 368 kts | 177° |
| 2026-05-06 14:14 | 42.55254 | 1.96781 | 26340 ft | 364 kts | 176° |
| 2026-05-06 14:15 | 42.52762 | 1.97329 | 25925 ft | 362 kts | 176° |
| 2026-05-06 14:15 | 42.50285 | 1.97872 | 25519 ft | 360 kts | 176° |
| 2026-05-06 14:15 | 42.47821 | 1.98412 | 25102 ft | 358 kts | 176° |
| 2026-05-06 14:15 | 42.45366 | 1.98950 | 24697 ft | 357 kts | 175° |
| 2026-05-06 14:16 | 42.42908 | 1.99487 | 24290 ft | 357 kts | 175° |
| 2026-05-06 14:16 | 42.40451 | 2.00025 | 23895 ft | 360 kts | 175° |
| 2026-05-06 14:16 | 42.37936 | 2.00574 | 23452 ft | 369 kts | 176° |
| 2026-05-06 14:16 | 42.35404 | 2.01066 | 22957 ft | 366 kts | 179° |
| 2026-05-06 14:17 | 42.32890 | 2.01392 | 22530 ft | 361 kts | 180° |
| 2026-05-06 14:17 | 42.30406 | 2.01662 | 22080 ft | 357 kts | 181° |
| 2026-05-06 14:17 | 42.27971 | 2.01926 | 21699 ft | 353 kts | 180° |
| 2026-05-06 14:17 | 42.25527 | 2.02205 | 21262 ft | 351 kts | 180° |
| 2026-05-06 14:18 | 42.23104 | 2.02492 | 20853 ft | 348 kts | 179° |
| 2026-05-06 14:18 | 42.20703 | 2.02782 | 20454 ft | 346 kts | 179° |
| 2026-05-06 14:18 | 42.18324 | 2.02785 | 20010 ft | 338 kts | 195° |
| 2026-05-06 14:18 | 42.16170 | 2.01704 | 19698 ft | 327 kts | 213° |
| 2026-05-06 14:19 | 42.14379 | 1.99847 | 19357 ft | 326 kts | 224° |
| 2026-05-06 14:19 | 42.12701 | 1.97735 | 18990 ft | 334 kts | 225° |
| 2026-05-06 14:19 | 42.11008 | 1.95542 | 18619 ft | 340 kts | 225° |
| 2026-05-06 14:19 | 42.09296 | 1.93329 | 18248 ft | 342 kts | 225° |
| 2026-05-06 14:20 | 42.07573 | 1.91119 | 17819 ft | 341 kts | 225° |
| 2026-05-06 14:20 | 42.05856 | 1.88934 | 17416 ft | 339 kts | 225° |
| 2026-05-06 14:20 | 42.04146 | 1.86767 | 17035 ft | 337 kts | 225° |
| 2026-05-06 14:20 | 42.02444 | 1.84613 | 16662 ft | 335 kts | 225° |
| 2026-05-06 14:21 | 42.00752 | 1.82478 | 16305 ft | 332 kts | 225° |
| 2026-05-06 14:21 | 41.99068 | 1.80357 | 15947 ft | 331 kts | 225° |
| 2026-05-06 14:21 | 41.97392 | 1.78248 | 15584 ft | 329 kts | 225° |
| 2026-05-06 14:21 | 41.95711 | 1.76165 | 15229 ft | 328 kts | 222° |
| 2026-05-06 14:22 | 41.93899 | 1.74296 | 14878 ft | 329 kts | 218° |
| 2026-05-06 14:22 | 41.92021 | 1.72542 | 14530 ft | 329 kts | 217° |
| 2026-05-06 14:22 | 41.90133 | 1.70806 | 14176 ft | 329 kts | 217° |
| 2026-05-06 14:22 | 41.88251 | 1.69062 | 13817 ft | 328 kts | 217° |
| 2026-05-06 14:23 | 41.86388 | 1.67318 | 13425 ft | 325 kts | 218° |
| 2026-05-06 14:23 | 41.84554 | 1.65586 | 13046 ft | 320 kts | 218° |
| 2026-05-06 14:23 | 41.82750 | 1.63875 | 12689 ft | 315 kts | 218° |
| 2026-05-06 14:23 | 41.80972 | 1.62184 | 12338 ft | 312 kts | 218° |
| 2026-05-06 14:24 | 41.79207 | 1.60504 | 12015 ft | 311 kts | 218° |
| 2026-05-06 14:24 | 41.77446 | 1.58830 | 11672 ft | 310 kts | 218° |
| 2026-05-06 14:24 | 41.75714 | 1.57187 | 11335 ft | 309 kts | 218° |
| 2026-05-06 14:24 | 41.73956 | 1.55544 | 10992 ft | 308 kts | 214° |
| 2026-05-06 14:25 | 41.71968 | 1.54512 | 10840 ft | 307 kts | 194° |
| 2026-05-06 14:25 | 41.69883 | 1.53990 | 10702 ft | 303 kts | 193° |
| 2026-05-06 14:25 | 41.67790 | 1.53488 | 10585 ft | 308 kts | 193° |
| 2026-05-06 14:25 | 41.65662 | 1.52969 | 10463 ft | 313 kts | 193° |
| 2026-05-06 14:26 | 41.63525 | 1.52436 | 10320 ft | 311 kts | 194° |
| 2026-05-06 14:26 | 41.61426 | 1.51908 | 10182 ft | 302 kts | 194° |
| 2026-05-06 14:26 | 41.59395 | 1.51394 | 10039 ft | 293 kts | 194° |
| 2026-05-06 14:26 | 41.57419 | 1.50892 | 9923 ft | 284 kts | 194° |
| 2026-05-06 14:27 | 41.55646 | 1.49966 | 9789 ft | 268 kts | 220° |
| 2026-05-06 14:27 | 41.54420 | 1.48193 | 9690 ft | 257 kts | 239° |
| 2026-05-06 14:27 | 41.53710 | 1.46036 | 9599 ft | 253 kts | 253° |
| 2026-05-06 14:27 | 41.53190 | 1.43789 | 9506 ft | 255 kts | 254° |
| 2026-05-06 14:28 | 41.52684 | 1.41499 | 9438 ft | 259 kts | 255° |
| 2026-05-06 14:28 | 41.52173 | 1.39182 | 9320 ft | 261 kts | 254° |
| 2026-05-06 14:28 | 41.51661 | 1.36867 | 9210 ft | 260 kts | 254° |
| 2026-05-06 14:28 | 41.51147 | 1.34561 | 9107 ft | 259 kts | 254° |
| 2026-05-06 14:29 | 41.50635 | 1.32271 | 8994 ft | 258 kts | 254° |
| 2026-05-06 14:29 | 41.50122 | 1.29986 | 8906 ft | 257 kts | 254° |
| 2026-05-06 14:29 | 41.49608 | 1.27703 | 8785 ft | 257 kts | 254° |
| 2026-05-06 14:29 | 41.49095 | 1.25428 | 8688 ft | 256 kts | 254° |
| 2026-05-06 14:30 | 41.48582 | 1.23160 | 8576 ft | 256 kts | 254° |
| 2026-05-06 14:30 | 41.48068 | 1.20889 | 8481 ft | 256 kts | 254° |
| 2026-05-06 14:30 | 41.47552 | 1.18618 | 8378 ft | 256 kts | 254° |
| 2026-05-06 14:30 | 41.47036 | 1.16343 | 8265 ft | 256 kts | 254° |
| 2026-05-06 14:31 | 41.46519 | 1.14069 | 8169 ft | 256 kts | 254° |
| 2026-05-06 14:31 | 41.46001 | 1.11795 | 8055 ft | 256 kts | 254° |
| 2026-05-06 14:31 | 41.45483 | 1.09519 | 7946 ft | 256 kts | 254° |
| 2026-05-06 14:31 | 41.44968 | 1.07259 | 7830 ft | 254 kts | 254° |
| 2026-05-06 14:32 | 41.44456 | 1.05015 | 7715 ft | 252 kts | 254° |
| 2026-05-06 14:32 | 41.43947 | 1.02790 | 7641 ft | 251 kts | 254° |
| 2026-05-06 14:32 | 41.43439 | 1.00567 | 7520 ft | 251 kts | 254° |
| 2026-05-06 14:32 | 41.42930 | 0.98345 | 7431 ft | 250 kts | 255° |
| 2026-05-06 14:33 | 41.42423 | 0.96127 | 7319 ft | 250 kts | 255° |
| 2026-05-06 14:33 | 41.41916 | 0.93916 | 7212 ft | 250 kts | 255° |
| 2026-05-06 14:33 | 41.41408 | 0.91702 | 7115 ft | 250 kts | 254° |
| 2026-05-06 14:33 | 41.40899 | 0.89487 | 7009 ft | 250 kts | 255° |
| 2026-05-06 14:34 | 41.40387 | 0.87268 | 6908 ft | 251 kts | 255° |
| 2026-05-06 14:34 | 41.39873 | 0.85042 | 6805 ft | 252 kts | 254° |
| 2026-05-06 14:34 | 41.39077 | 0.82965 | 6679 ft | 257 kts | 231° |
| 2026-05-06 14:34 | 41.38162 | 0.81946 | 6632 ft | 262 kts | 216° |
| 2026-05-06 14:35 | 41.36461 | 0.81023 | 6502 ft | 266 kts | 200° |
| 2026-05-06 14:35 | 41.34679 | 0.80343 | 6412 ft | 267 kts | 200° |
| 2026-05-06 14:35 | 41.32892 | 0.79674 | 6292 ft | 267 kts | 198° |
| 2026-05-06 14:35 | 41.31109 | 0.79000 | 6165 ft | 266 kts | 199° |
| 2026-05-06 14:36 | 41.28767 | 0.78097 | 6021 ft | 263 kts | 199° |
| 2026-05-06 14:36 | 41.27593 | 0.77642 | 5949 ft | 259 kts | 200° |
| 2026-05-06 14:36 | 41.25883 | 0.76976 | 5838 ft | 253 kts | 201° |
| 2026-05-06 14:36 | 41.24216 | 0.76326 | 5734 ft | 247 kts | 199° |
| 2026-05-06 14:37 | 41.22577 | 0.75726 | 5620 ft | 242 kts | 195° |
| 2026-05-06 14:37 | 41.20942 | 0.75332 | 5520 ft | 235 kts | 193° |
| 2026-05-06 14:37 | 41.19366 | 0.74983 | 5457 ft | 223 kts | 192° |
| 2026-05-06 14:37 | 41.17847 | 0.74642 | 5370 ft | 222 kts | 194° |
| 2026-05-06 14:38 | 41.16297 | 0.74340 | 5277 ft | 229 kts | 186° |
| 2026-05-06 14:38 | 41.14687 | 0.74429 | 5200 ft | 234 kts | 179° |
| 2026-05-06 14:38 | 41.13051 | 0.74557 | 5093 ft | 236 kts | 180° |
| 2026-05-06 14:38 | 41.11409 | 0.74665 | 4973 ft | 238 kts | 181° |
| 2026-05-06 14:39 | 41.09756 | 0.74780 | 4859 ft | 238 kts | 177° |
| 2026-05-06 14:39 | 41.08155 | 0.75373 | 4788 ft | 240 kts | 159° |
| 2026-05-06 14:39 | 41.06601 | 0.76224 | 4686 ft | 242 kts | 159° |
| 2026-05-06 14:39 | 41.05169 | 0.77316 | 4533 ft | 243 kts | 134° |
| 2026-05-06 14:40 | 41.04367 | 0.79229 | 4460 ft | 238 kts | 100° |
| 2026-05-06 14:40 | 41.04391 | 0.81380 | 4361 ft | 233 kts | 73° |
| 2026-05-06 14:40 | 41.04944 | 0.83385 | 4313 ft | 232 kts | 64° |
| 2026-05-06 14:40 | 41.05552 | 0.85381 | 4205 ft | 235 kts | 66° |
| 2026-05-06 14:41 | 41.06148 | 0.87390 | 4076 ft | 234 kts | 66° |
| 2026-05-06 14:41 | 41.06737 | 0.89379 | 3967 ft | 229 kts | 66° |
| 2026-05-06 14:41 | 41.07313 | 0.91322 | 3727 ft | 222 kts | 66° |
| 2026-05-06 14:41 | 41.07863 | 0.93187 | 3497 ft | 213 kts | 65° |
| 2026-05-06 14:42 | 41.08393 | 0.94982 | 3276 ft | 206 kts | 66° |
| 2026-05-06 14:42 | 41.08904 | 0.96727 | 3043 ft | 201 kts | 66° |
| 2026-05-06 14:42 | 41.09403 | 0.98430 | 2795 ft | 193 kts | 65° |
| 2026-05-06 14:42 | 41.09879 | 1.00058 | 2606 ft | 186 kts | 65° |
| 2026-05-06 14:43 | 41.10341 | 1.01634 | 2445 ft | 185 kts | 65° |
| 2026-05-06 14:43 | 41.10806 | 1.03219 | 2220 ft | 185 kts | 65° |
| 2026-05-06 14:43 | 41.11265 | 1.04792 | 1977 ft | 176 kts | 66° |
| 2026-05-06 14:43 | 41.11690 | 1.06252 | 1734 ft | 163 kts | 65° |
| 2026-05-06 14:44 | 41.12090 | 1.07622 | 1528 ft | 159 kts | 65° |
| 2026-05-06 14:44 | 41.12488 | 1.08982 | 1336 ft | 156 kts | 66° |
| 2026-05-06 14:44 | 41.12877 | 1.10310 | 1143 ft | 151 kts | 71° |
| 2026-05-06 14:45 | 41.13618 | 1.12932 | 782 ft | 153 kts | 72° |
| 2026-05-06 14:45 | 41.14017 | 1.14247 | 524 ft | 152 kts | 71° |
| 2026-05-06 14:45 | 41.14393 | 1.15516 | 322 ft | 142 kts | 74° |
| 2026-05-06 14:45 | 41.14723 | 1.16674 | 244 ft | 119 kts | 69° |
| 2026-05-06 14:46 | 41.14944 | 1.17430 | 243 ft | 56 kts | 68° |
| 2026-05-06 14:46 | 41.15031 | 1.17604 | 243 ft | 15 kts | 349° |
| 2026-05-06 14:46 | 41.15129 | 1.17556 | 243 ft | 15 kts | 339° |
| 2026-05-06 14:46 | 41.15151 | 1.17517 | 243 ft | 5 kts | 251° |
| 2026-05-06 14:47 | 41.15135 | 1.17464 | 243 ft | 8 kts | 248° |
| 2026-05-06 14:47 | 41.15108 | 1.17372 | 243 ft | 13 kts | 250° |
| 2026-05-06 14:47 | 41.15074 | 1.17253 | 243 ft | 14 kts | 249° |
| 2026-05-06 14:47 | 41.15039 | 1.17134 | 243 ft | 14 kts | 248° |
| 2026-05-06 14:48 | 41.15001 | 1.17004 | 243 ft | 16 kts | 249° |
| 2026-05-06 14:48 | 41.14957 | 1.16855 | 243 ft | 18 kts | 249° |
| 2026-05-06 14:48 | 41.14911 | 1.16697 | 243 ft | 19 kts | 249° |
| 2026-05-06 14:48 | 41.14862 | 1.16531 | 243 ft | 20 kts | 249° |
| 2026-05-06 14:49 | 41.14816 | 1.16372 | 243 ft | 17 kts | 249° |
| 2026-05-06 14:49 | 41.14774 | 1.16229 | 243 ft | 16 kts | 248° |
| 2026-05-06 14:49 | 41.14734 | 1.16096 | 243 ft | 16 kts | 249° |
| 2026-05-06 14:49 | 41.14695 | 1.15959 | 243 ft | 15 kts | 249° |
| 2026-05-06 14:50 | 41.14657 | 1.15831 | 243 ft | 15 kts | 249° |
| 2026-05-06 14:50 | 41.14626 | 1.15727 | 243 ft | 12 kts | 251° |
| 2026-05-06 14:50 | 41.14602 | 1.15643 | 243 ft | 8 kts | 249° |
| 2026-05-06 14:50 | 41.14613 | 1.15586 | 243 ft | 6 kts | 332° |
| 2026-05-06 14:51 | 41.14649 | 1.15568 | 243 ft | 4 kts | 339° |
| 2026-05-06 14:51 | 41.14662 | 1.15562 | 243 ft | 1 kts | 339° |
| 2026-05-06 14:51 | 41.14663 | 1.15561 | 243 ft | 0 kts | 339° |